Time;durP1;ratioP1;P1;durP2;ratioP2;P2;SDS_P1;SDS_P2;PMS_P1;PMS_P2;Temp;Humidity;BMP_temperature;BMP_pressure;BME280_temperature;BME280_humidity;BME280_pressure;Samples;Min_cycle;Max_cycle;Signal;HPM_P1;HPM_P2
2023/02/21 02:16:25;;;;;;;9.47;5.70;;;8.20;99.90;;;;;;5040107;28;20428;-73
2023/02/21 02:19:29;;;;;;;8.50;3.43;;;8.20;99.90;;;;;;5043592;28;20279;-73
2023/02/21 02:22:38;;;;;;;7.07;3.57;;;8.20;99.90;;;;;;5032996;28;20564;-73
2023/02/21 02:25:18;;;;;;;6.50;3.33;;;8.20;99.90;;;;;;5035679;28;20211;-73
2023/02/21 02:28:14;;;;;;;8.53;3.60;;;8.10;99.90;;;;;;5044705;28;20191;-73
2023/02/21 02:31:23;;;;;;;6.33;3.33;;;8.20;99.90;;;;;;5040807;28;20191;-73
2023/02/21 02:34:49;;;;;;;10.10;2.97;;;8.30;99.90;;;;;;5032373;28;20211;-73
2023/02/21 02:37:52;;;;;;;6.83;3.00;;;8.20;99.90;;;;;;5040852;28;20187;-73
2023/02/21 02:41:04;;;;;;;7.23;3.07;;;8.20;99.90;;;;;;5037218;28;20195;-73
2023/02/21 02:43:37;;;;;;;7.03;3.60;;;8.10;99.90;;;;;;5007837;28;20249;-73
2023/02/21 02:46:16;;;;;;;7.53;3.43;;;8.10;99.90;;;;;;5060430;28;20195;-73
2023/02/21 02:49:02;;;;;;;5.57;3.57;;;8.10;99.90;;;;;;5036348;28;20226;-73
2023/02/21 02:51:32;;;;;;;10.50;4.20;;;8.10;99.90;;;;;;5040557;28;20223;-71
2023/02/21 02:53:58;;;;;;;9.03;3.43;;;8.00;99.90;;;;;;5039350;28;20696;-71
2023/02/21 02:56:25;;;;;;;5.87;3.57;;;8.00;99.90;;;;;;5039519;28;20219;-71
2023/02/21 02:59:05;;;;;;;10.40;3.60;;;7.90;99.90;;;;;;5045490;28;20772;-73
2023/02/21 03:01:52;;;;;;;11.97;3.57;;;7.90;99.90;;;;;;5038724;28;20217;-73
2023/02/21 03:04:36;;;;;;;9.37;3.50;;;7.80;99.90;;;;;;5042793;28;20191;-73
2023/02/21 03:08:03;;;;;;;7.10;3.27;;;7.70;99.90;;;;;;5041090;28;20190;-73
2023/02/21 03:10:59;;;;;;;8.53;3.70;;;7.70;99.90;;;;;;5043427;28;20199;-73
2023/02/21 03:14:01;;;;;;;7.57;3.80;;;7.70;99.90;;;;;;5041584;28;20664;-73
2023/02/21 03:16:33;;;;;;;12.43;4.10;;;7.70;99.90;;;;;;5040489;28;20320;-73
2023/02/21 03:19:16;;;;;;;6.47;3.53;;;7.70;99.90;;;;;;5055300;28;20274;-73
2023/02/21 03:22:09;;;;;;;8.30;3.77;;;7.70;99.90;;;;;;5037352;28;20661;-73
2023/02/21 03:24:40;;;;;;;9.90;3.77;;;7.80;99.90;;;;;;5043543;28;20223;-73
2023/02/21 03:27:10;;;;;;;7.90;4.13;;;7.80;99.90;;;;;;5039340;28;20190;-73
2023/02/21 03:29:39;;;;;;;10.73;4.87;;;7.70;99.90;;;;;;5041498;28;20199;-73
2023/02/21 03:34:56;;;;;;;11.63;5.53;;;7.80;99.90;;;;;;5050908;28;20586;-73
2023/02/21 03:37:43;;;;;;;8.83;4.43;;;7.90;99.90;;;;;;5038047;28;20221;-73
2023/02/21 03:40:32;;;;;;;10.73;4.70;;;7.90;99.90;;;;;;5040220;28;20199;-73
2023/02/21 03:43:01;;;;;;;10.80;4.87;;;7.90;99.90;;;;;;5038323;28;20279;-73
2023/02/21 03:45:28;;;;;;;13.13;5.37;;;7.80;99.90;;;;;;5040215;28;20198;-73
2023/02/21 03:47:56;;;;;;;13.53;5.73;;;7.90;99.90;;;;;;5055295;28;20203;-73
2023/02/21 03:50:23;;;;;;;14.27;4.63;;;7.80;99.90;;;;;;5045963;28;20268;-73
2023/02/21 03:52:49;;;;;;;15.90;5.40;;;7.80;99.90;;;;;;5039845;28;20203;-73
2023/02/21 03:55:16;;;;;;;12.13;4.53;;;7.80;99.90;;;;;;5038709;28;20187;-73
2023/02/21 03:57:43;;;;;;;12.37;4.60;;;7.80;99.90;;;;;;5038449;28;20722;-73
2023/02/21 04:00:11;;;;;;;14.53;5.33;;;7.80;99.90;;;;;;5050189;28;20314;-73
2023/02/21 04:02:37;;;;;;;12.57;5.17;;;7.80;99.90;;;;;;5031543;28;20257;-73
2023/02/21 04:05:03;;;;;;;13.87;5.03;;;7.70;99.90;;;;;;5042669;28;20664;-73
2023/02/21 04:07:30;;;;;;;17.37;5.43;;;7.70;99.90;;;;;;5044131;28;20200;-73
2023/02/21 04:09:56;;;;;;;12.33;4.97;;;7.70;99.90;;;;;;5041097;28;20273;-73
2023/02/21 04:12:25;;;;;;;9.47;4.93;;;7.70;99.90;;;;;;5038723;28;20200;-73
2023/02/21 04:14:51;;;;;;;13.27;5.40;;;7.80;99.90;;;;;;5062985;28;20202;-73
2023/02/21 04:17:19;;;;;;;11.13;5.50;;;7.70;99.90;;;;;;5034872;28;20183;-73
2023/02/21 04:19:51;;;;;;;13.10;5.00;;;7.70;99.90;;;;;;5040755;28;20183;-73
2023/02/21 04:22:19;;;;;;;10.33;4.33;;;7.70;99.90;;;;;;5041147;28;20679;-73
2023/02/21 04:24:46;;;;;;;14.33;4.90;;;7.70;99.90;;;;;;5038615;28;20271;-73
2023/02/21 04:27:20;;;;;;;12.37;4.73;;;7.70;99.90;;;;;;5033913;28;20244;-73
2023/02/21 04:29:46;;;;;;;10.10;4.70;;;7.70;99.90;;;;;;5041751;28;20195;-73
2023/02/21 04:32:13;;;;;;;10.07;4.00;;;7.60;99.90;;;;;;5044004;28;20200;-73
2023/02/21 04:34:39;;;;;;;8.17;4.40;;;7.60;99.90;;;;;;5046165;28;20226;-73
2023/02/21 04:37:05;;;;;;;5.93;3.57;;;7.60;99.90;;;;;;5043722;28;20876;-73
2023/02/21 04:39:31;;;;;;;9.33;4.53;;;7.60;99.90;;;;;;5020534;28;20271;-73
2023/02/21 04:41:58;;;;;;;8.87;4.40;;;7.60;99.90;;;;;;5058245;28;20768;-73
2023/02/21 04:44:24;;;;;;;9.13;4.63;;;7.60;99.90;;;;;;5037602;28;20863;-73
2023/02/21 04:46:50;;;;;;;8.57;4.23;;;7.60;99.90;;;;;;5041502;28;20203;-73
2023/02/21 04:49:18;;;;;;;8.60;4.50;;;7.60;99.90;;;;;;5037866;28;20759;-73
2023/02/21 04:51:44;;;;;;;14.17;5.30;;;7.60;99.90;;;;;;5055346;28;20215;-73
2023/02/21 04:54:10;;;;;;;9.30;4.20;;;7.50;99.90;;;;;;5059351;28;20672;-73
2023/02/21 04:56:39;;;;;;;7.10;4.30;;;7.50;99.90;;;;;;5043316;28;20191;-73
2023/02/21 04:59:06;;;;;;;10.97;4.27;;;7.50;99.90;;;;;;5050111;28;20176;-73
2023/02/21 05:01:32;;;;;;;7.93;3.93;;;7.50;99.90;;;;;;5045939;28;20188;-73
2023/02/21 05:03:59;;;;;;;10.97;4.10;;;7.50;99.90;;;;;;5045552;28;20199;-73
2023/02/21 05:06:29;;;;;;;6.87;4.17;;;7.60;99.90;;;;;;5042551;28;20291;-73
2023/02/21 05:08:57;;;;;;;8.37;4.30;;;7.60;99.90;;;;;;5043256;28;20248;-73
2023/02/21 05:11:24;;;;;;;8.43;3.63;;;7.60;99.90;;;;;;5048235;28;20202;-73
2023/02/21 05:13:51;;;;;;;8.37;4.63;;;7.60;99.90;;;;;;5041688;28;20188;-73
2023/02/21 05:16:42;;;;;;;8.40;4.17;;;7.60;99.90;;;;;;5041591;28;20199;-73
2023/02/21 05:19:10;;;;;;;5.77;3.90;;;7.60;99.90;;;;;;5044360;28;20278;-73
2023/02/21 05:21:37;;;;;;;6.13;4.20;;;7.70;99.90;;;;;;5057779;28;20270;-73
2023/02/21 05:24:05;;;;;;;10.57;4.10;;;7.70;99.90;;;;;;5042203;28;20340;-73
2023/02/21 05:26:37;;;;;;;8.30;4.57;;;7.80;99.90;;;;;;5043045;28;20188;-73
2023/02/21 05:29:04;;;;;;;6.77;4.20;;;7.80;99.90;;;;;;5043944;28;20183;-73
2023/02/21 05:31:30;;;;;;;9.13;4.50;;;7.90;99.90;;;;;;5044362;28;20198;-73
2023/02/21 05:33:57;;;;;;;7.90;4.23;;;7.90;99.90;;;;;;5043070;28;20184;-73
2023/02/21 05:36:24;;;;;;;7.23;4.30;;;8.00;99.90;;;;;;5043074;28;20198;-73
2023/02/21 05:38:54;;;;;;;7.53;3.80;;;8.00;99.90;;;;;;5042990;28;20288;-73
2023/02/21 05:41:21;;;;;;;6.53;3.80;;;8.10;99.90;;;;;;5045118;28;20192;-73
2023/02/21 05:43:49;;;;;;;7.70;4.10;;;8.20;99.90;;;;;;5046169;28;20195;-73
2023/02/21 05:46:33;;;;;;;5.40;3.93;;;8.30;99.90;;;;;;5042138;28;20180;-73
2023/02/21 05:49:02;;;;;;;6.60;3.83;;;8.30;99.90;;;;;;5042919;28;20190;-73
2023/02/21 05:51:40;;;;;;;9.83;4.30;;;8.40;99.90;;;;;;5042805;28;20176;-73
2023/02/21 05:54:08;;;;;;;6.53;4.00;;;8.50;99.90;;;;;;5048657;28;20277;-73
2023/02/21 05:56:40;;;;;;;8.30;4.53;;;8.60;99.90;;;;;;5059986;28;20810;-73
2023/02/21 05:59:07;;;;;;;6.57;3.93;;;8.70;99.90;;;;;;5047927;28;20298;-73
2023/02/21 06:01:35;;;;;;;8.10;4.27;;;8.70;99.90;;;;;;5041644;28;21074;-73
2023/02/21 06:04:01;;;;;;;5.60;3.83;;;8.80;99.90;;;;;;5028843;28;20274;-73
2023/02/21 06:06:27;;;;;;;7.73;4.30;;;8.90;99.90;;;;;;5044184;28;20645;-73
2023/02/21 06:08:53;;;;;;;6.17;4.07;;;9.00;99.90;;;;;;5039126;28;20215;-73
2023/02/21 06:11:27;;;;;;;5.97;4.40;;;8.90;99.90;;;;;;5059614;28;20657;-73
2023/02/21 06:13:56;;;;;;;8.37;3.63;;;8.60;99.90;;;;;;5045435;28;20222;-73
2023/02/21 06:16:23;;;;;;;7.93;3.93;;;8.40;99.90;;;;;;5050083;28;20183;-73
2023/02/21 06:18:56;;;;;;;7.57;3.57;;;8.40;99.90;;;;;;5062488;28;20184;-73
2023/02/21 06:21:22;;;;;;;4.60;3.93;;;8.40;99.90;;;;;;5046536;28;20649;-73
2023/02/21 06:23:52;;;;;;;9.53;3.80;;;8.40;99.90;;;;;;5041677;28;20187;-73
2023/02/21 06:26:20;;;;;;;9.03;3.87;;;8.40;99.90;;;;;;5039774;28;20559;-73
2023/02/21 06:28:47;;;;;;;10.37;4.27;;;8.50;99.90;;;;;;5041925;28;20182;-73
2023/02/21 06:31:15;;;;;;;6.63;4.10;;;8.70;99.90;;;;;;5045956;28;22757;-73
2023/02/21 06:33:41;;;;;;;9.17;4.33;;;8.80;99.90;;;;;;5039988;28;20276;-73
2023/02/21 06:36:16;;;;;;;8.37;4.00;;;8.90;99.90;;;;;;5040927;28;20191;-73
2023/02/21 06:38:51;;;;;;;5.93;3.90;;;9.00;99.90;;;;;;5041602;28;20182;-73
2023/02/21 06:41:28;;;;;;;6.63;4.40;;;9.10;99.90;;;;;;5060493;28;20194;-73
2023/02/21 06:43:57;;;;;;;9.57;4.00;;;9.20;99.90;;;;;;5041338;28;20195;-73
2023/02/21 06:46:28;;;;;;;7.40;4.03;;;9.20;99.90;;;;;;5055220;28;20203;-73
2023/02/21 06:48:56;;;;;;;8.00;4.67;;;9.30;99.90;;;;;;5047845;28;20199;-73
2023/02/21 06:51:28;;;;;;;9.33;4.30;;;9.40;99.90;;;;;;5041120;28;20179;-73
2023/02/21 06:53:56;;;;;;;6.10;4.37;;;9.40;99.90;;;;;;5042041;28;20275;-73
2023/02/21 06:56:22;;;;;;;6.23;4.03;;;9.40;99.90;;;;;;5042573;28;20203;-73
2023/02/21 06:58:52;;;;;;;9.13;4.23;;;9.50;99.90;;;;;;5041022;28;20194;-73
2023/02/21 07:01:19;;;;;;;9.40;4.40;;;9.50;99.90;;;;;;5042299;28;20192;-73
2023/02/21 07:03:46;;;;;;;7.00;4.20;;;9.50;99.90;;;;;;5039541;28;20188;-73
2023/02/21 07:06:13;;;;;;;8.27;4.00;;;9.60;99.90;;;;;;5039291;28;20199;-73
2023/02/21 07:08:40;;;;;;;6.17;4.37;;;9.70;99.90;;;;;;5038946;28;20218;-73
2023/02/21 07:11:07;;;;;;;10.23;4.03;;;9.70;99.90;;;;;;5037181;28;20191;-73
2023/02/21 07:13:34;;;;;;;7.70;4.40;;;9.80;99.90;;;;;;5041432;28;20306;-73
2023/02/21 07:16:02;;;;;;;10.33;4.33;;;9.80;99.90;;;;;;5042322;28;20195;-73
2023/02/21 07:18:29;;;;;;;5.37;4.47;;;9.90;99.90;;;;;;5044088;28;20225;-73
2023/02/21 07:20:55;;;;;;;10.97;4.83;;;9.90;99.90;;;;;;5038920;28;20191;-73
2023/02/21 07:23:24;;;;;;;9.27;4.33;;;10.00;99.90;;;;;;5040283;28;20199;-73
2023/02/21 07:25:51;;;;;;;7.53;4.03;;;10.00;99.90;;;;;;5041248;28;20358;-73
2023/02/21 07:28:17;;;;;;;9.00;4.23;;;10.10;99.90;;;;;;5041182;28;20196;-73
2023/02/21 07:30:44;;;;;;;6.50;3.93;;;10.10;99.90;;;;;;5059822;28;20295;-73
2023/02/21 07:33:10;;;;;;;7.27;4.70;;;10.20;99.90;;;;;;5042324;28;20242;-73
2023/02/21 07:35:36;;;;;;;12.73;4.43;;;10.20;99.90;;;;;;5042051;28;20186;-73
2023/02/21 07:38:05;;;;;;;8.33;4.20;;;10.30;99.90;;;;;;5044312;28;20614;-73
2023/02/21 07:40:31;;;;;;;8.67;4.13;;;10.30;99.90;;;;;;5058553;28;20277;-73
2023/02/21 07:42:58;;;;;;;6.83;4.00;;;10.40;99.90;;;;;;5040927;28;20667;-73
2023/02/21 07:45:25;;;;;;;10.17;4.27;;;10.50;99.90;;;;;;5042935;28;20191;-73
2023/02/21 07:47:52;;;;;;;5.37;3.93;;;10.50;99.90;;;;;;5054760;28;20557;-73
2023/02/21 07:50:18;;;;;;;7.50;4.30;;;10.60;99.90;;;;;;5038055;28;20195;-73
2023/02/21 07:52:45;;;;;;;11.90;4.67;;;10.60;99.90;;;;;;5042663;28;20204;-73
2023/02/21 07:55:12;;;;;;;8.83;4.30;;;10.60;99.90;;;;;;5035498;28;20191;-73
2023/02/21 07:57:38;;;;;;;5.97;4.20;;;10.70;99.90;;;;;;5041652;28;20188;-73
2023/02/21 08:00:08;;;;;;;8.33;4.67;;;10.90;99.90;;;;;;5044713;28;20192;-73
2023/02/21 08:02:35;;;;;;;6.57;3.97;;;11.00;99.90;;;;;;5043031;28;21338;-73
2023/02/21 08:05:05;;;;;;;6.40;4.17;;;11.00;99.90;;;;;;5027791;28;20592;-73
2023/02/21 08:07:32;;;;;;;9.07;4.50;;;10.90;99.90;;;;;;5042734;28;20210;-73
2023/02/21 08:09:58;;;;;;;6.43;4.23;;;11.00;99.90;;;;;;5045048;28;20338;-73
2023/02/21 08:12:24;;;;;;;10.97;4.67;;;11.20;99.90;;;;;;5059555;28;20277;-73
2023/02/21 08:14:57;;;;;;;8.60;3.87;;;11.30;99.90;;;;;;5059876;28;20546;-73
2023/02/21 08:17:24;;;;;;;6.50;4.07;;;11.40;99.90;;;;;;5040002;28;20211;-73
2023/02/21 08:19:50;;;;;;;5.73;3.60;;;11.50;99.90;;;;;;5046882;28;20190;-73
2023/02/21 08:22:17;;;;;;;6.50;4.20;;;11.60;99.90;;;;;;5044089;28;20219;-73
2023/02/21 08:24:45;;;;;;;6.33;4.00;;;11.80;99.90;;;;;;5043921;28;20194;-73
2023/02/21 08:27:11;;;;;;;9.10;4.20;;;11.80;99.90;;;;;;5038631;28;20225;-73
2023/02/21 08:29:39;;;;;;;8.83;3.80;;;11.70;99.90;;;;;;5040296;28;20879;-73
2023/02/21 08:32:05;;;;;;;4.83;3.27;;;11.90;99.90;;;;;;5043015;28;20207;-73
2023/02/21 08:34:32;;;;;;;7.60;4.10;;;12.00;99.90;;;;;;5041377;28;20188;-73
2023/02/21 08:36:58;;;;;;;5.60;3.60;;;12.00;99.90;;;;;;5038490;28;20219;-73
2023/02/21 08:39:28;;;;;;;7.17;3.40;;;12.00;99.90;;;;;;5040844;28;20188;-73
2023/02/21 08:41:55;;;;;;;6.00;3.87;;;12.10;99.90;;;;;;5040877;28;20200;-73
2023/02/21 08:44:24;;;;;;;100.00;7.83;;;12.00;99.90;;;;;;5047772;28;21007;-73
2023/02/21 08:46:50;;;;;;;6.27;3.83;;;12.00;99.90;;;;;;5040938;28;20199;-73
2023/02/21 08:49:17;;;;;;;11.47;3.73;;;12.00;99.90;;;;;;5045001;28;20260;-73
2023/02/21 08:51:43;;;;;;;4.83;3.63;;;11.60;99.90;;;;;;5043379;28;20199;-73
2023/02/21 08:54:09;;;;;;;8.67;4.20;;;11.40;99.90;;;;;;5042206;28;20800;-73
2023/02/21 08:56:36;;;;;;;7.17;3.67;;;11.70;99.90;;;;;;5040739;28;20561;-73
2023/02/21 08:59:03;;;;;;;6.80;3.93;;;11.70;99.90;;;;;;5043359;28;20222;-73
2023/02/21 09:01:34;;;;;;;5.73;3.77;;;11.80;99.90;;;;;;5048573;28;20183;-73
2023/02/21 09:04:04;;;;;;;8.53;3.63;;;11.70;99.90;;;;;;5044735;28;20216;-73
2023/02/21 09:06:31;;;;;;;7.33;4.00;;;11.60;99.90;;;;;;5045099;28;20225;-73
2023/02/21 09:08:57;;;;;;;8.53;3.83;;;11.90;99.90;;;;;;5044609;28;20198;-73
2023/02/21 09:11:24;;;;;;;5.40;3.57;;;11.90;99.90;;;;;;5065761;28;20605;-73
2023/02/21 09:13:53;;;;;;;7.03;3.70;;;11.80;99.90;;;;;;5038480;28;20289;-73
2023/02/21 09:16:22;;;;;;;7.03;3.90;;;12.10;99.90;;;;;;5046107;28;20199;-73
2023/02/21 09:18:57;;;;;;;9.27;3.90;;;12.30;99.90;;;;;;5048119;28;20195;-73
2023/02/21 09:21:25;;;;;;;6.27;3.57;;;12.10;99.90;;;;;;5020530;28;20841;-73
2023/02/21 09:23:58;;;;;;;5.97;3.40;;;12.10;99.90;;;;;;5018364;28;20229;-73
2023/02/21 09:26:25;;;;;;;4.87;3.60;;;11.90;99.90;;;;;;5025786;28;20194;-73
2023/02/21 09:28:52;;;;;;;4.93;3.50;;;12.20;99.90;;;;;;5024240;28;20203;-73
2023/02/21 09:31:19;;;;;;;11.53;3.60;;;12.60;99.90;;;;;;5054020;28;20196;-73
2023/02/21 09:33:46;;;;;;;6.63;3.70;;;12.60;99.90;;;;;;5046272;28;20295;-73
2023/02/21 09:36:12;;;;;;;6.33;4.03;;;12.70;99.90;;;;;;5025957;28;20191;-73
2023/02/21 09:38:40;;;;;;;6.70;3.80;;;12.80;99.90;;;;;;5045468;28;20191;-73
2023/02/21 09:41:12;;;;;;;8.23;4.07;;;12.90;99.90;;;;;;5042596;28;20184;-73
2023/02/21 09:43:45;;;;;;;8.90;4.53;;;13.00;99.90;;;;;;5039392;28;20187;-73
2023/02/21 09:46:32;;;;;;;5.97;3.80;;;13.00;99.90;;;;;;5045763;28;20707;-73
2023/02/21 09:49:02;;;;;;;4.97;3.50;;;13.10;99.90;;;;;;5045304;28;20285;-73
2023/02/21 09:51:32;;;;;;;4.70;3.40;;;13.00;99.90;;;;;;5045550;28;20211;-73
2023/02/21 09:54:03;;;;;;;6.67;4.17;;;12.90;99.90;;;;;;5044472;28;20234;-73
2023/02/21 09:56:37;;;;;;;4.73;3.80;;;12.90;99.90;;;;;;5024343;28;20198;-73
2023/02/21 09:59:11;;;;;;;6.93;3.67;;;13.00;99.90;;;;;;5046100;28;20194;-73
2023/02/21 10:01:52;;;;;;;7.03;3.80;;;13.30;99.90;;;;;;5044141;28;20294;-73
2023/02/21 10:05:12;;;;;;;6.10;4.13;;;13.20;99.90;;;;;;5018910;28;20192;-73
2023/02/21 10:08:35;;;;;;;5.60;3.60;;;13.50;99.90;;;;;;5022394;28;20214;-73
2023/02/21 10:11:36;;;;;;;5.83;3.97;;;13.90;99.90;;;;;;5018665;28;20211;-73
2023/02/21 10:14:36;;;;;;;5.93;3.40;;;14.30;99.90;;;;;;5051133;28;20259;-73
2023/02/21 10:17:20;;;;;;;5.27;3.33;;;14.30;99.90;;;;;;5053298;28;20199;-73
2023/02/21 10:19:57;;;;;;;8.33;3.57;;;14.50;99.90;;;;;;5041961;28;20515;-73
2023/02/21 10:22:32;;;;;;;6.13;3.40;;;14.60;99.90;;;;;;5044169;28;20172;-73
2023/02/21 10:25:09;;;;;;;8.00;4.00;;;14.60;99.90;;;;;;5045523;28;20922;-73
2023/02/21 10:27:35;;;;;;;5.20;3.33;;;14.70;99.90;;;;;;5035465;28;20184;-73
2023/02/21 10:30:34;;;;;;;4.47;3.40;;;14.80;99.90;;;;;;5042541;28;20661;-73
2023/02/21 10:33:05;;;;;;;8.00;3.60;;;14.80;99.90;;;;;;5039070;28;20200;-73
2023/02/21 10:35:33;;;;;;;9.00;3.30;;;15.10;99.90;;;;;;5040063;28;20192;-73
2023/02/21 10:38:05;;;;;;;10.77;4.07;;;15.20;99.90;;;;;;5044554;28;20866;-73
2023/02/21 10:40:42;;;;;;;6.40;3.43;;;15.30;99.90;;;;;;5043212;28;20183;-73
2023/02/21 10:43:47;;;;;;;12.70;3.40;;;15.40;99.90;;;;;;5042183;28;20183;-73
2023/02/21 10:46:36;;;;;;;8.17;2.90;;;15.40;99.90;;;;;;5041914;28;20762;-73
2023/02/21 10:49:48;;;;;;;6.13;3.20;;;15.40;99.90;;;;;;5036605;28;20175;-73
2023/02/21 10:52:21;;;;;;;4.37;3.00;;;15.60;99.90;;;;;;5044256;28;20218;-73
2023/02/21 10:55:21;;;;;;;6.77;3.00;;;16.20;99.90;;;;;;5039998;28;20223;-73
2023/02/21 10:57:56;;;;;;;9.27;3.57;;;16.10;99.90;;;;;;5037174;28;20186;-74
2023/02/21 11:00:46;;;;;;;8.83;3.00;;;16.30;99.90;;;;;;5041580;28;20544;-73
2023/02/21 11:03:29;;;;;;;4.30;2.73;;;16.50;99.90;;;;;;5044973;28;20540;-73
2023/02/21 11:05:57;;;;;;;4.73;2.80;;;16.70;99.90;;;;;;5049558;28;20294;-73
2023/02/21 11:08:39;;;;;;;9.10;3.30;;;16.60;99.90;;;;;;5040435;28;20194;-73
2023/02/21 11:11:06;;;;;;;5.73;2.50;;;16.70;99.90;;;;;;5064302;28;20195;-73
2023/02/21 11:13:35;;;;;;;5.73;3.07;;;16.90;99.90;;;;;;5039172;28;20211;-73
2023/02/21 11:16:21;;;;;;;8.97;3.13;;;17.40;99.90;;;;;;5036996;28;20210;-73
2023/02/21 11:19:06;;;;;;;7.40;3.10;;;17.60;99.90;;;;;;5044986;28;20184;-73
2023/02/21 11:21:32;;;;;;;3.50;2.80;;;18.00;99.90;;;;;;5029224;28;20190;-73
2023/02/21 11:24:04;;;;;;;7.97;3.03;;;18.20;99.90;;;;;;5030071;28;20741;-73
2023/02/21 11:26:43;;;;;;;8.90;3.00;;;17.30;99.90;;;;;;5036220;28;20194;-73
2023/02/21 11:29:25;;;;;;;6.30;2.90;;;16.80;99.90;;;;;;5045554;28;20187;-73
2023/02/21 11:31:55;;;;;;;7.20;3.40;;;16.50;99.90;;;;;;5045899;28;20195;-73
2023/02/21 11:34:29;;;;;;;4.40;2.77;;;16.30;99.90;;;;;;5051949;28;20306;-73
2023/02/21 11:37:03;;;;;;;7.73;3.13;;;16.30;99.90;;;;;;5046384;28;20183;-73
2023/02/21 11:39:34;;;;;;;8.00;3.70;;;16.40;99.90;;;;;;5045692;28;20202;-73
2023/02/21 11:42:21;;;;;;;10.90;3.70;;;16.30;99.90;;;;;;5051876;28;20187;-73
2023/02/21 11:45:02;;;;;;;7.80;4.70;;;16.20;99.90;;;;;;5042837;28;20281;-73
2023/02/21 11:47:38;;;;;;;10.10;5.30;;;16.30;99.90;;;;;;5045843;28;20195;-73
2023/02/21 11:50:31;;;;;;;8.83;3.60;;;16.40;99.90;;;;;;5040561;28;20187;-73
2023/02/21 11:53:26;;;;;;;6.93;3.30;;;15.80;99.90;;;;;;5040680;28;20264;-73
2023/02/21 11:56:21;;;;;;;5.70;3.47;;;15.70;99.90;;;;;;5048823;28;20198;-73
2023/02/21 11:59:12;;;;;;;8.27;3.33;;;16.00;99.90;;;;;;5063461;28;20658;-73
2023/02/21 12:02:00;;;;;;;11.13;3.50;;;16.30;99.90;;;;;;5052356;28;20201;-73
2023/02/21 12:04:45;;;;;;;9.47;3.13;;;16.40;99.90;;;;;;5043113;28;20659;-73
2023/02/21 12:07:44;;;;;;;8.13;3.30;;;16.40;99.90;;;;;;5040041;28;20211;-73
2023/02/21 12:10:57;;;;;;;5.97;3.33;;;16.40;99.90;;;;;;5044381;28;20171;-73
2023/02/21 12:14:08;;;;;;;5.33;3.13;;;16.30;99.90;;;;;;5030089;28;20306;-73
2023/02/21 12:16:54;;;;;;;5.40;3.27;;;15.80;99.90;;;;;;5053124;28;20199;-73
2023/02/21 12:20:09;;;;;;;8.60;3.37;;;16.10;99.90;;;;;;5060899;28;20282;-73
2023/02/21 12:23:11;;;;;;;10.43;3.37;;;16.20;99.90;;;;;;5048200;28;20187;-74
2023/02/21 12:26:07;;;;;;;5.17;3.30;;;16.20;99.90;;;;;;5052356;28;20179;-73
2023/02/21 12:29:03;;;;;;;9.03;3.30;;;16.40;99.90;;;;;;5063124;28;20290;-73
2023/02/21 12:31:47;;;;;;;8.47;3.40;;;16.40;99.90;;;;;;5047981;28;20581;-73
2023/02/21 12:34:54;;;;;;;5.40;3.40;;;16.30;99.90;;;;;;5046622;28;20542;-73
2023/02/21 12:37:32;;;;;;;8.47;3.73;;;16.40;99.90;;;;;;5047852;28;20186;-73
2023/02/21 12:40:50;;;;;;;5.17;3.17;;;16.30;99.90;;;;;;5047592;28;20185;-73
2023/02/21 12:43:53;;;;;;;5.20;3.47;;;16.20;99.90;;;;;;5032307;28;20176;-73
2023/02/21 12:46:38;;;;;;;11.07;4.27;;;16.10;99.90;;;;;;5045564;28;20184;-73
2023/02/21 12:49:21;;;;;;;6.83;3.70;;;16.20;99.90;;;;;;5046393;28;20218;-73
2023/02/21 12:52:05;;;;;;;13.13;3.60;;;15.90;99.90;;;;;;5062801;28;20712;-73
2023/02/21 12:54:50;;;;;;;7.70;4.03;;;16.10;99.90;;;;;;5061642;28;20732;-73
2023/02/21 12:57:43;;;;;;;10.37;4.40;;;16.10;99.90;;;;;;5039425;28;20210;-73
2023/02/21 13:00:39;;;;;;;7.53;3.50;;;16.00;99.90;;;;;;5037985;28;20203;-73
2023/02/21 13:03:22;;;;;;;6.37;3.63;;;16.00;99.90;;;;;;5048484;28;20352;-73
2023/02/21 13:06:01;;;;;;;6.53;3.57;;;15.80;99.90;;;;;;5049269;28;20191;-73
2023/02/21 13:08:55;;;;;;;7.47;3.90;;;15.70;99.90;;;;;;5061746;28;20184;-73
2023/02/21 13:11:38;;;;;;;6.90;3.93;;;15.90;99.90;;;;;;5047548;28;20212;-73
2023/02/21 13:14:19;;;;;;;6.70;4.03;;;15.90;99.90;;;;;;5041906;28;20203;-73
2023/02/21 13:16:45;;;;;;;5.63;3.67;;;15.80;99.90;;;;;;5029015;28;20191;-73
2023/02/21 13:19:14;;;;;;;8.83;4.07;;;15.70;99.90;;;;;;5047139;28;20176;-73
2023/02/21 13:25:11;;;;;;;8.77;4.23;;;15.10;99.90;;;;;;5046772;28;20820;-73
2023/02/21 13:27:56;;;;;;;5.83;3.90;;;14.90;99.90;;;;;;5046984;28;20262;-73
2023/02/21 13:30:40;;;;;;;9.57;4.33;;;15.10;99.90;;;;;;5044423;28;20803;-73
2023/02/21 13:33:27;;;;;;;8.17;4.20;;;15.20;99.90;;;;;;5040315;28;20585;-73
2023/02/21 13:35:59;;;;;;;8.60;4.20;;;15.00;99.90;;;;;;5038792;28;20198;-73
2023/02/21 13:38:30;;;;;;;9.33;4.00;;;15.10;99.90;;;;;;5062029;28;20190;-73
2023/02/21 13:41:10;;;;;;;7.43;4.13;;;15.10;99.90;;;;;;5046958;28;20183;-73
2023/02/21 13:43:46;;;;;;;7.60;4.43;;;15.20;99.90;;;;;;5046656;28;20205;-73
2023/02/21 13:46:29;;;;;;;9.87;4.20;;;15.00;99.90;;;;;;5046859;28;20580;-73
2023/02/21 13:49:55;;;;;;;8.97;4.10;;;14.80;99.90;;;;;;5045043;28;20183;-73
2023/02/21 13:52:21;;;;;;;9.30;4.07;;;14.90;99.90;;;;;;5028937;28;20203;-73
2023/02/21 13:55:16;;;;;;;11.63;4.10;;;14.80;99.90;;;;;;5041571;28;20187;-73
2023/02/21 13:57:59;;;;;;;7.13;4.03;;;14.70;99.90;;;;;;5045760;28;20187;-73
2023/02/21 14:00:25;;;;;;;6.63;4.27;;;14.40;99.90;;;;;;5039655;28;20182;-73
2023/02/21 14:03:11;;;;;;;7.37;3.97;;;14.70;99.90;;;;;;5043890;28;20199;-73
2023/02/21 14:05:48;;;;;;;8.13;4.17;;;14.80;99.90;;;;;;5044695;28;20191;-73
2023/02/21 14:08:20;;;;;;;6.03;4.30;;;14.20;99.90;;;;;;5049419;28;20178;-73
2023/02/21 14:11:06;;;;;;;9.40;5.10;;;13.90;99.90;;;;;;5046357;28;20584;-73
2023/02/21 14:13:56;;;;;;;11.57;4.40;;;13.90;99.90;;;;;;5045155;28;20249;-73
2023/02/21 14:16:36;;;;;;;8.00;4.50;;;13.50;99.90;;;;;;5038206;28;20188;-73
2023/02/21 14:19:47;;;;;;;5.80;3.97;;;13.90;99.90;;;;;;5033216;28;20194;-73
2023/02/21 14:22:25;;;;;;;9.00;5.10;;;13.70;99.90;;;;;;5062648;28;20183;-73
2023/02/21 14:25:24;;;;;;;8.83;4.77;;;13.60;99.90;;;;;;5046286;28;20209;-73
2023/02/21 14:27:54;;;;;;;7.07;4.30;;;13.90;99.90;;;;;;5042231;28;20194;-73
2023/02/21 14:30:46;;;;;;;9.30;4.50;;;13.60;99.90;;;;;;5044330;28;20215;-73
2023/02/21 14:33:25;;;;;;;8.00;4.70;;;13.50;99.90;;;;;;5026697;28;20703;-73
2023/02/21 14:36:07;;;;;;;10.97;6.00;;;13.30;99.90;;;;;;5044971;28;20252;-73
2023/02/21 14:38:42;;;;;;;7.93;5.17;;;13.30;99.90;;;;;;5040517;28;20184;-73
2023/02/21 14:41:50;;;;;;;8.97;5.20;;;13.40;99.90;;;;;;5057772;28;20190;-73
2023/02/21 14:44:58;;;;;;;7.67;4.90;;;13.40;99.90;;;;;;5036638;28;20215;-73
2023/02/21 14:47:54;;;;;;;13.10;4.97;;;13.30;99.90;;;;;;5045268;28;20295;-73
2023/02/21 14:51:17;;;;;;;7.87;5.20;;;13.20;99.90;;;;;;5041454;28;20187;-73
2023/02/21 14:54:03;;;;;;;13.27;5.70;;;13.10;99.90;;;;;;5058298;28;20226;-73
2023/02/21 14:57:18;;;;;;;8.00;5.00;;;13.10;99.90;;;;;;5057106;28;20184;-73
2023/02/21 15:00:17;;;;;;;8.80;5.27;;;13.00;99.90;;;;;;5025566;28;20750;-73
2023/02/21 15:02:53;;;;;;;8.03;5.57;;;12.90;99.90;;;;;;5025798;28;20629;-73
2023/02/21 15:05:22;;;;;;;11.60;6.20;;;12.80;99.90;;;;;;5045183;28;20364;-73
2023/02/21 15:07:48;;;;;;;8.00;5.50;;;12.70;99.90;;;;;;5044970;28;20183;-73
2023/02/21 15:10:29;;;;;;;8.43;5.87;;;12.60;99.90;;;;;;5017199;28;20638;-73
2023/02/21 15:13:02;;;;;;;10.10;5.90;;;12.50;99.90;;;;;;5045149;28;20199;-73
2023/02/21 15:15:41;;;;;;;7.07;5.73;;;12.40;99.90;;;;;;5039890;28;20264;-73
2023/02/21 15:18:29;;;;;;;12.20;5.07;;;12.30;99.90;;;;;;5044736;28;20186;-73
2023/02/21 15:21:11;;;;;;;10.10;5.60;;;12.20;99.90;;;;;;5060261;28;20183;-73
2023/02/21 15:23:59;;;;;;;12.53;6.30;;;12.10;99.90;;;;;;5056588;28;25704;-73
2023/02/21 15:26:30;;;;;;;7.43;5.43;;;12.10;99.90;;;;;;5042672;28;20195;-73
2023/02/21 15:29:15;;;;;;;10.23;5.70;;;11.90;99.90;;;;;;5040931;28;20274;-73
2023/02/21 15:31:57;;;;;;;10.43;5.87;;;11.70;99.90;;;;;;5044863;28;20194;-73
2023/02/21 15:34:45;;;;;;;11.43;6.30;;;11.90;99.90;;;;;;5050693;28;20198;-73
2023/02/21 15:37:25;;;;;;;9.17;5.97;;;12.00;99.90;;;;;;5044352;28;20716;-73
2023/02/21 15:40:10;;;;;;;8.03;5.43;;;11.90;99.90;;;;;;5043522;28;20686;-73
2023/02/21 15:42:41;;;;;;;7.87;5.93;;;11.90;99.90;;;;;;5059387;28;20625;-73
2023/02/21 15:45:18;;;;;;;11.90;6.00;;;11.80;99.90;;;;;;5032935;28;20186;-73
2023/02/21 15:47:45;;;;;;;13.87;7.30;;;11.80;99.90;;;;;;5045709;28;20191;-73
2023/02/21 15:50:42;;;;;;;14.20;7.63;;;11.80;99.90;;;;;;5064605;28;20203;-73
2023/02/21 15:53:19;;;;;;;10.80;7.23;;;11.80;99.90;;;;;;5045226;28;20735;-73
2023/02/21 15:55:47;;;;;;;7.17;5.63;;;11.80;99.90;;;;;;5060068;28;20682;-73
2023/02/21 15:58:25;;;;;;;9.40;5.80;;;11.60;99.90;;;;;;5074779;28;20182;-73
2023/02/21 16:01:10;;;;;;;9.63;5.57;;;11.50;99.90;;;;;;5064682;28;20811;-73